| time (UTC) | temp F | wind direction | speed MPH | gust MPH | rain 1hr in | rain 24hr in | rain mn in | humidity % | barometer mb |
| 20260903133022 | 83 | 76 | 0.0 | 0.0 | 0.00 | 1.75 | 0.00 | 63 | 968.1 |
| 20260903131518 | 83 | 76 | 0.0 | 0.0 | 0.00 | 1.75 | 0.00 | 63 | 968.0 |
| 20260903130023 | 83 | 76 | 0.0 | 0.0 | 0.00 | 1.75 | 0.00 | 62 | 968.0 |
| 20260903124515 | 84 | 76 | 0.0 | 0.0 | 0.00 | 1.75 | 0.00 | 62 | 967.8 |
| 20260903123016 | 84 | 76 | 0.0 | 0.0 | 0.00 | 1.75 | 0.00 | 59 | 967.8 |
| 20260903121512 | 84 | 76 | 0.0 | 0.0 | 0.00 | 1.75 | 0.00 | 58 | 967.6 |
| 20260903120011 | 83 | 76 | 0.0 | 0.0 | 0.00 | 1.75 | 0.00 | 59 | 967.4 |
| 20260903114509 | 84 | 76 | 0.0 | 0.0 | 0.00 | 1.75 | 0.00 | 57 | 967.3 |
| 20260903113017 | 84 | 190 | 0.0 | 0.0 | 0.00 | 1.75 | 0.00 | 57 | 967.2 |
| 20260903111504 | 84 | 190 | 0.0 | 0.0 | 0.00 | 1.75 | 0.00 | 55 | 967.2 |
| 20260903110004 | 84 | 190 | 0.0 | 0.0 | 0.00 | 1.75 | 0.00 | 52 | 967.1 |
| 20260903104503 | 85 | 190 | 0.0 | 0.0 | 0.00 | 1.75 | 0.00 | 52 | 967.1 |
| 20260903103101 | 85 | 190 | 0.0 | 0.0 | 0.00 | 1.75 | 0.00 | 54 | 967.0 |
| 20260903101606 | 85 | 190 | 0.0 | 0.0 | 0.00 | 1.75 | 0.00 | 54 | 967.0 |
| 20260903100059 | 86 | 190 | 0.0 | 0.0 | 0.00 | 1.75 | 0.00 | 54 | 967.1 |
| 20260903094601 | 86 | 190 | 0.0 | 0.0 | 0.00 | 1.75 | 0.00 | 54 | 967.1 |
| 20260903093056 | 86 | 190 | 0.0 | 0.0 | 0.00 | 1.75 | 0.00 | 54 | 967.1 |
| 20260903091555 | 86 | 190 | 0.0 | 0.0 | 0.00 | 1.75 | 0.00 | 53 | 967.1 |
| 20260903090053 | 86 | 190 | 0.0 | 0.0 | 0.00 | 1.75 | 0.00 | 53 | 966.9 |
| 20260903084551 | 87 | 190 | 0.0 | 0.0 | 0.00 | 1.75 | 0.00 | 52 | 966.7 |
| 20260903083048 | 87 | 190 | 0.0 | 0.0 | 0.00 | 1.75 | 0.00 | 51 | 966.8 |
| 20260903081548 | 88 | 190 | 0.0 | 0.0 | 0.00 | 1.75 | 0.00 | 50 | 966.8 |
| 20260903080044 | 89 | 190 | 0.0 | 0.0 | 0.00 | 1.75 | 0.00 | 49 | 966.8 |
| 20260903074547 | 89 | 190 | 0.0 | 0.0 | 0.00 | 1.75 | 0.00 | 48 | 966.9 |
| 20260903073039 | 90 | 190 | 0.0 | 0.0 | 0.00 | 1.75 | 0.00 | 47 | 966.8 |
| 20260903071537 | 90 | 190 | 0.0 | 0.0 | 0.00 | 1.75 | 0.00 | 46 | 966.9 |
| 20260903070036 | 92 | 188 | 0.0 | 0.0 | 0.00 | 1.75 | 0.00 | 38 | 966.9 |
| 20260903064532 | 93 | 268 | 0.0 | 0.0 | 0.00 | 1.75 | 1.75 | 30 | 966.7 |
| 20260903063034 | 94 | 268 | 0.0 | 0.0 | 0.00 | 1.75 | 1.75 | 30 | 966.6 |
| 20260903061546 | 94 | 270 | 0.0 | 0.0 | 0.00 | 1.75 | 1.75 | 32 | 966.6 |
| 20260903060029 | 94 | 283 | 2.0 | 9.0 | 0.00 | 1.75 | 1.75 | 36 | 966.6 |
| 20260903054542 | 94 | 265 | 0.0 | 0.0 | 0.00 | 1.75 | 1.75 | 40 | 966.6 |
| 20260903053041 | 94 | 265 | 0.0 | 0.0 | 0.00 | 1.75 | 1.75 | 40 | 966.6 |
| 20260903051527 | 94 | 265 | 0.0 | 0.0 | 0.00 | 1.75 | 1.75 | 40 | 966.6 |
| 20260903050027 | 95 | 265 | 0.0 | 0.0 | 0.00 | 1.75 | 1.75 | 39 | 966.5 |
| 20260903044527 | 95 | 264 | 0.0 | 0.0 | 0.00 | 1.75 | 1.75 | 39 | 966.5 |
| 20260903043026 | 95 | 267 | 0.0 | 0.0 | 0.00 | 1.75 | 1.75 | 39 | 966.5 |
| 20260903041529 | 95 | 267 | 0.0 | 0.0 | 0.00 | 1.75 | 1.75 | 38 | 966.6 |
| 20260903040026 | 96 | 267 | 0.0 | 0.0 | 0.00 | 1.75 | 1.75 | 37 | 966.4 |
| 20260903034525 | 96 | 286 | 0.0 | 0.0 | 0.00 | 1.75 | 1.75 | 36 | 966.2 |
| 20260903033024 | 96 | 286 | 0.0 | 8.0 | 0.00 | 1.75 | 1.75 | 35 | 966.1 |
| 20260903031524 | 96 | 287 | 0.0 | 9.0 | 0.00 | 1.75 | 1.75 | 35 | 966.0 |
| 20260903030036 | 96 | 264 | 2.0 | 10.0 | 0.00 | 1.75 | 1.75 | 35 | 965.8 |
| 20260903024536 | 97 | 287 | 4.0 | 9.0 | 0.00 | 1.75 | 1.75 | 35 | 965.8 |
| 20260903023023 | 97 | 271 | 0.0 | 10.0 | 0.00 | 1.75 | 1.75 | 35 | 965.7 |
| 20260903021530 | 97 | 282 | 6.0 | 10.0 | 0.00 | 1.75 | 1.75 | 35 | 965.5 |
| 20260903020026 | 97 | 269 | 0.0 | 13.0 | 0.02 | 1.75 | 1.75 | 35 | 965.3 |
| 20260903014521 | 98 | 272 | 2.0 | 10.0 | 0.02 | 1.75 | 1.75 | 35 | 965.2 |
| 20260903013021 | 98 | 299 | 7.0 | 12.0 | 0.02 | 1.75 | 1.75 | 34 | 965.1 |
| 20260903011536 | 99 | 290 | 1.0 | 10.0 | 0.02 | 1.75 | 1.75 | 33 | 965.1 |
| 20260903010020 | 100 | 277 | 0.0 | 9.0 | 0.00 | 1.73 | 1.73 | 32 | 965.1 |
| 20260903004529 | 100 | 292 | 0.0 | 0.0 | 0.00 | 1.73 | 1.73 | 32 | 965.1 |
| 20260903003021 | 100 | 238 | 0.0 | 12.0 | 0.00 | 1.73 | 1.73 | 32 | 965.1 |
| 20260903001518 | 101 | 288 | 0.0 | 0.0 | 0.00 | 1.73 | 1.73 | 32 | 965.2 |
| 20260903000016 | 100 | 249 | 7.0 | 11.0 | 0.01 | 1.73 | 1.73 | 31 | 965.3 |
| 20260902234515 | 101 | 292 | 0.0 | 0.0 | 0.03 | 1.76 | 1.73 | 30 | 965.4 |
| 20260902233026 | 101 | 292 | 6.0 | 13.0 | 0.04 | 1.76 | 1.73 | 30 | 965.6 |
| 20260902231517 | 100 | 259 | 2.0 | 11.0 | 0.04 | 1.76 | 1.73 | 31 | 965.8 |
| 20260902230012 | 101 | 242 | 0.0 | 8.0 | 0.12 | 1.75 | 1.72 | 30 | 965.9 |
| 20260902224511 | 101 | 335 | 0.0 | 11.0 | 0.09 | 1.81 | 1.69 | 30 | 966.0 |
| 20260902223008 | 100 | 265 | 4.0 | 14.0 | 0.12 | 1.81 | 1.69 | 31 | 966.4 |
| 20260902221506 | 100 | 192 | 0.0 | 17.0 | 0.14 | 1.81 | 1.69 | 31 | 966.4 |
| 20260902220006 | 100 | 240 | 4.0 | 12.0 | 0.11 | 1.75 | 1.60 | 31 | 966.6 |
| 20260902214504 | 100 | 244 | 5.0 | 14.0 | 0.26 | 1.75 | 1.60 | 31 | 966.8 |
| 20260902213104 | 99 | 244 | 0.0 | 15.0 | 0.30 | 1.72 | 1.57 | 32 | 967.0 |
| 20260902211610 | 99 | 176 | 0.0 | 11.0 | 0.35 | 1.70 | 1.55 | 33 | 967.2 |
| 20260902210059 | 99 | 130 | 2.0 | 13.0 | 0.49 | 1.64 | 1.49 | 34 | 967.4 |
| 20260902204553 | 98 | 173 | 2.0 | 10.0 | 0.43 | 1.49 | 1.34 | 35 | 967.7 |
| 20260902203052 | 97 | 210 | 6.0 | 14.0 | 0.48 | 1.42 | 1.27 | 35 | 968.0 |
| 20260902201611 | 97 | 234 | 7.0 | 14.0 | 0.44 | 1.35 | 1.20 | 35 | 968.2 |
| 20260902200052 | 98 | 153 | 2.0 | 13.0 | 0.28 | 1.14 | 1.00 | 36 | 968.4 |
| 20260902194546 | 98 | 184 | 5.0 | 13.0 | 0.33 | 1.06 | 0.88 | 35 | 968.7 |
| 20260902193043 | 96 | 183 | 2.0 | 10.0 | 0.28 | 0.97 | 0.79 | 36 | 968.8 |
| 20260902191548 | 97 | 192 | 4.0 | 16.0 | 0.28 | 0.94 | 0.76 | 35 | 969.1 |
| 20260902190042 | 96 | 183 | 4.0 | 17.0 | 0.39 | 0.89 | 0.71 | 36 | 969.3 |
| 20260902184540 | 95 | 199 | 3.0 | 12.0 | 0.32 | 0.74 | 0.53 | 38 | 969.4 |
| 20260902183046 | 95 | 144 | 0.0 | 8.0 | 0.31 | 0.71 | 0.50 | 39 | 969.6 |
| 20260902181536 | 94 | 169 | 2.0 | 14.0 | 0.38 | 0.69 | 0.48 | 40 | 969.8 |
| 20260902180035 | 94 | 140 | 1.0 | 12.0 | 0.28 | 0.52 | 0.31 | 42 | 969.9 |
| 20260902174534 | 94 | 147 | 0.0 | 9.0 | 0.19 | 0.43 | 0.21 | 41 | 970.0 |
| 20260902173032 | 94 | 184 | 1.0 | 13.0 | 0.19 | 0.41 | 0.19 | 41 | 970.1 |
| 20260902171530 | 93 | 214 | 3.0 | 13.0 | 0.10 | 0.32 | 0.10 | 41 | 970.1 |
| 20260902170027 | 92 | 138 | 0.0 | 8.0 | 0.02 | 0.24 | 0.02 | 46 | 970.1 |
| 20260902164524 | 91 | 157 | 0.0 | 6.0 | 0.02 | 0.24 | 0.02 | 48 | 970.1 |
| 20260902163022 | 90 | 138 | 0.0 | 7.0 | 0.00 | 0.22 | 0.00 | 51 | 970.2 |
| 20260902161522 | 90 | 118 | 1.0 | 8.0 | 0.00 | 0.22 | 0.00 | 53 | 970.2 |
| 20260902160019 | 90 | 173 | 0.0 | 10.0 | 0.00 | 0.22 | 0.00 | 55 | 970.1 |
| 20260902154520 | 89 | 156 | 0.0 | 6.0 | 0.00 | 0.22 | 0.00 | 56 | 970.1 |
| 20260902153018 | 88 | 113 | 0.0 | 0.0 | 0.00 | 0.22 | 0.00 | 57 | 970.0 |
| 20260902151516 | 87 | 78 | 0.0 | 0.0 | 0.00 | 0.22 | 0.00 | 59 | 969.9 |
| 20260902150015 | 86 | 78 | 0.0 | 0.0 | 0.00 | 0.22 | 0.00 | 60 | 969.9 |
| 20260902144514 | 85 | 78 | 0.0 | 0.0 | 0.00 | 0.22 | 0.00 | 62 | 970.0 |
| 20260902143015 | 85 | 78 | 0.0 | 0.0 | 0.00 | 0.22 | 0.00 | 62 | 969.9 |
| 20260902141521 | 84 | 78 | 0.0 | 0.0 | 0.00 | 0.22 | 0.00 | 63 | 969.7 |
| 20260902140016 | 83 | 78 | 0.0 | 0.0 | 0.00 | 0.22 | 0.00 | 64 | 969.5 |
| 20260902134510 | 83 | 76 | 0.0 | 0.0 | 0.00 | 0.22 | 0.00 | 64 | 969.3 |